Time;durP1;ratioP1;P1;durP2;ratioP2;P2;SDS_P1;SDS_P2;PMS_P1;PMS_P2;Temp;Humidity;BMP_temperature;BMP_pressure;BME280_temperature;BME280_humidity;BME280_pressure;Samples;Min_cycle;Max_cycle;Signal;HPM_P1;HPM_P2
2021/01/08 00:00:19;;;;;;;10.95;4.65;;;1.10;99.90;;;;;;5031721;28;20045;-51
2021/01/08 00:02:45;;;;;;;4.38;2.38;;;1.10;99.90;;;;;;5028457;28;20049;-50
2021/01/08 00:05:12;;;;;;;7.05;3.72;;;1.20;99.90;;;;;;5024563;28;20061;-51
2021/01/08 00:07:39;;;;;;;11.00;3.47;;;1.20;99.90;;;;;;5030707;28;20061;-51
2021/01/08 00:10:09;;;;;;;5.10;2.10;;;1.20;99.90;;;;;;5030426;28;20394;-50
2021/01/08 00:12:36;;;;;;;3.42;1.70;;;1.20;99.90;;;;;;5030995;28;20057;-50
2021/01/08 00:15:07;;;;;;;2.25;1.45;;;1.20;99.90;;;;;;5030218;28;20474;-50
2021/01/08 00:17:34;;;;;;;5.10;2.38;;;1.30;99.90;;;;;;5026458;28;20041;-50
2021/01/08 00:20:01;;;;;;;3.03;1.63;;;1.30;99.90;;;;;;5027972;28;20045;-51
2021/01/08 00:22:28;;;;;;;3.65;1.60;;;1.30;99.90;;;;;;5028412;28;20061;-51
2021/01/08 00:24:54;;;;;;;6.70;2.20;;;1.30;99.90;;;;;;5029707;28;20056;-50
2021/01/08 00:27:22;;;;;;;4.85;1.15;;;1.30;99.90;;;;;;5030539;28;20061;-50
2021/01/08 00:29:49;;;;;;;5.85;1.70;;;1.30;99.90;;;;;;5023445;28;20056;-50
2021/01/08 00:32:19;;;;;;;4.75;1.80;;;1.30;99.90;;;;;;5023147;28;20143;-50
2021/01/08 00:34:47;;;;;;;10.20;3.42;;;1.30;99.90;;;;;;5014985;28;20112;-50
2021/01/08 00:37:13;;;;;;;4.57;2.17;;;1.20;99.90;;;;;;5027143;28;20049;-50
2021/01/08 00:39:41;;;;;;;3.65;1.67;;;1.20;99.90;;;;;;5012481;28;20490;-50
2021/01/08 00:42:08;;;;;;;17.75;5.18;;;1.30;99.90;;;;;;5028235;28;20078;-50
2021/01/08 00:44:35;;;;;;;26.85;8.10;;;1.20;99.90;;;;;;5016863;28;20099;-51
2021/01/08 00:47:02;;;;;;;16.73;7.53;;;1.20;99.90;;;;;;5020090;28;20061;-50
2021/01/08 00:49:28;;;;;;;12.93;5.50;;;1.20;99.90;;;;;;5021886;28;20057;-50
2021/01/08 00:51:55;;;;;;;13.80;6.93;;;1.10;99.90;;;;;;5026479;28;20052;-50
2021/01/08 00:54:22;;;;;;;8.40;5.38;;;1.20;99.90;;;;;;5027452;28;20064;-51
2021/01/08 00:56:48;;;;;;;9.02;6.43;;;1.10;99.90;;;;;;5027479;28;20045;-50
2021/01/08 00:59:15;;;;;;;10.27;5.10;;;1.10;99.90;;;;;;5027533;28;20503;-51
2021/01/08 01:01:41;;;;;;;8.45;4.30;;;1.10;99.90;;;;;;5028718;28;20099;-51
2021/01/08 01:04:08;;;;;;;5.63;3.35;;;1.10;99.90;;;;;;5020521;28;20057;-51
2021/01/08 01:06:35;;;;;;;4.50;2.60;;;1.10;99.90;;;;;;5022112;28;20050;-51
2021/01/08 01:09:03;;;;;;;3.83;2.28;;;1.20;99.90;;;;;;5023327;28;20080;-50
2021/01/08 01:11:31;;;;;;;4.93;1.38;;;1.20;99.90;;;;;;5025531;28;21661;-50
2021/01/08 01:13:58;;;;;;;5.10;2.33;;;1.20;99.90;;;;;;5028313;28;20053;-50
2021/01/08 01:16:28;;;;;;;4.95;1.80;;;1.20;99.90;;;;;;5029736;28;20541;-52
2021/01/08 01:18:57;;;;;;;3.20;2.60;;;1.20;99.90;;;;;;5027703;28;20057;-50
2021/01/08 01:21:26;;;;;;;7.47;3.83;;;1.20;99.90;;;;;;5027168;28;20049;-50
2021/01/08 01:23:53;;;;;;;4.97;2.78;;;1.10;99.90;;;;;;5028058;28;20554;-51
2021/01/08 01:26:20;;;;;;;6.75;4.32;;;1.10;99.90;;;;;;5015423;28;20054;-51
2021/01/08 01:28:46;;;;;;;4.15;2.92;;;1.10;99.90;;;;;;5025784;28;20475;-50
2021/01/08 01:31:13;;;;;;;7.63;4.10;;;1.10;99.90;;;;;;5022736;28;20056;-50
2021/01/08 01:33:40;;;;;;;3.25;2.75;;;1.00;99.90;;;;;;5028581;28;20053;-50
2021/01/08 01:36:08;;;;;;;4.22;3.22;;;1.00;99.90;;;;;;5028276;28;20050;-50
2021/01/08 01:38:36;;;;;;;4.50;1.63;;;1.00;99.90;;;;;;5019701;28;20057;-50
2021/01/08 01:41:04;;;;;;;4.72;2.22;;;1.00;99.90;;;;;;5024122;28;20478;-50
2021/01/08 01:43:31;;;;;;;9.88;3.42;;;1.00;99.90;;;;;;5030446;28;20064;-50
2021/01/08 01:45:57;;;;;;;7.68;3.63;;;1.00;99.90;;;;;;5028106;28;20048;-50
2021/01/08 01:48:24;;;;;;;5.82;3.60;;;0.90;99.90;;;;;;5010870;28;20060;-50
2021/01/08 01:50:52;;;;;;;8.15;3.95;;;0.90;99.90;;;;;;5027281;28;20466;-50
2021/01/08 01:53:19;;;;;;;8.52;4.35;;;0.90;99.90;;;;;;5028613;28;20061;-50
2021/01/08 01:55:47;;;;;;;7.38;4.75;;;0.90;99.90;;;;;;5021741;28;20414;-50
2021/01/08 01:58:14;;;;;;;4.95;4.00;;;0.90;99.90;;;;;;5029808;28;20037;-50
2021/01/08 02:00:40;;;;;;;5.38;2.95;;;0.90;99.90;;;;;;5030489;28;20049;-51
2021/01/08 02:03:09;;;;;;;5.22;2.97;;;0.80;99.90;;;;;;5026292;28;20054;-51
2021/01/08 02:05:36;;;;;;;5.82;2.13;;;0.90;99.90;;;;;;5010682;28;20061;-50
2021/01/08 02:08:17;;;;;;;2.45;1.35;;;0.80;99.90;;;;;;5025580;28;20045;-51
2021/01/08 02:10:53;;;;;;;2.15;1.38;;;0.90;99.90;;;;;;5030234;28;20048;-50
2021/01/08 02:13:27;;;;;;;2.97;1.10;;;0.90;99.90;;;;;;5032437;28;20065;-50
2021/01/08 02:15:57;;;;;;;2.33;0.82;;;1.00;99.90;;;;;;5030504;28;20041;-51
2021/01/08 02:18:26;;;;;;;1.45;0.75;;;1.00;99.90;;;;;;5029902;28;20349;-50
2021/01/08 02:20:55;;;;;;;1.90;1.27;;;1.00;99.90;;;;;;5031911;28;20045;-50
2021/01/08 02:23:29;;;;;;;1.10;0.70;;;1.00;99.90;;;;;;5020539;28;20140;-52
2021/01/08 02:25:56;;;;;;;3.92;0.80;;;1.00;99.90;;;;;;5030614;28;20056;-50
2021/01/08 02:28:24;;;;;;;2.22;1.13;;;1.00;99.90;;;;;;5031360;28;20135;-50
2021/01/08 02:30:52;;;;;;;1.83;1.13;;;1.00;99.90;;;;;;5019655;28;20467;-51
2021/01/08 02:33:20;;;;;;;5.80;0.70;;;1.00;99.90;;;;;;5029830;28;20045;-51
2021/01/08 02:35:50;;;;;;;1.88;1.02;;;1.00;99.90;;;;;;5018221;28;20046;-51
2021/01/08 02:38:19;;;;;;;0.93;0.60;;;1.00;99.90;;;;;;5031452;28;20498;-50
2021/01/08 02:40:47;;;;;;;1.38;0.60;;;1.10;99.90;;;;;;5031820;28;20050;-50
2021/01/08 02:43:18;;;;;;;1.42;0.60;;;1.10;99.90;;;;;;5021402;28;20046;-50
2021/01/08 02:45:45;;;;;;;0.77;0.50;;;1.20;99.90;;;;;;5025528;28;20038;-53
2021/01/08 02:48:12;;;;;;;0.82;0.50;;;1.10;99.90;;;;;;5018730;28;20057;-50
2021/01/08 02:50:39;;;;;;;1.55;0.40;;;1.20;99.90;;;;;;5029575;28;20049;-51
2021/01/08 02:53:11;;;;;;;2.45;0.60;;;1.20;99.90;;;;;;5031859;28;20462;-50
2021/01/08 02:55:40;;;;;;;2.88;0.80;;;1.20;99.90;;;;;;5032330;28;20045;-50
2021/01/08 02:58:07;;;;;;;1.17;0.60;;;1.20;99.90;;;;;;5024382;28;20053;-52
2021/01/08 03:00:34;;;;;;;2.05;0.70;;;1.20;99.90;;;;;;5032415;28;20046;-50
2021/01/08 03:03:01;;;;;;;0.82;0.60;;;1.20;99.90;;;;;;5028363;28;20053;-50
2021/01/08 03:05:31;;;;;;;0.95;0.60;;;1.20;99.90;;;;;;5033211;28;20049;-50
2021/01/08 03:07:58;;;;;;;0.65;0.60;;;1.20;99.90;;;;;;5028054;28;20132;-50
2021/01/08 03:10:25;;;;;;;1.50;0.63;;;1.20;99.90;;;;;;5016656;28;20498;-50
2021/01/08 03:12:57;;;;;;;2.05;0.70;;;1.20;99.90;;;;;;5032805;28;20053;-50
2021/01/08 03:15:24;;;;;;;1.33;0.60;;;1.20;99.90;;;;;;5031009;28;20041;-50
2021/01/08 03:17:51;;;;;;;0.80;0.60;;;1.20;99.90;;;;;;5019116;28;20309;-50
2021/01/08 03:20:18;;;;;;;3.85;0.60;;;1.20;99.90;;;;;;5025827;28;20044;-51
2021/01/08 03:22:45;;;;;;;1.08;0.60;;;1.20;99.90;;;;;;5020038;28;20060;-50
2021/01/08 03:25:12;;;;;;;0.57;0.45;;;1.30;99.90;;;;;;5031403;28;20045;-50
2021/01/08 03:27:39;;;;;;;0.60;0.47;;;1.20;99.90;;;;;;5030929;28;20413;-50
2021/01/08 03:30:08;;;;;;;2.28;0.50;;;1.30;99.90;;;;;;5024989;28;20053;-50
2021/01/08 03:32:35;;;;;;;1.05;0.65;;;1.20;99.90;;;;;;5020574;28;20045;-50
2021/01/08 03:35:04;;;;;;;1.17;0.60;;;1.20;99.90;;;;;;5030206;28;20061;-51
2021/01/08 03:37:31;;;;;;;0.57;0.40;;;1.30;99.90;;;;;;5029467;28;20466;-51
2021/01/08 03:39:58;;;;;;;3.13;0.60;;;1.30;99.90;;;;;;5018065;28;20042;-50
2021/01/08 03:42:24;;;;;;;0.88;0.50;;;1.30;99.90;;;;;;5030512;28;20053;-50
2021/01/08 03:44:51;;;;;;;0.70;0.50;;;1.30;99.90;;;;;;5028467;28;20054;-50
2021/01/08 03:47:17;;;;;;;1.17;0.50;;;1.30;99.90;;;;;;5023634;28;20050;-51
2021/01/08 03:49:44;;;;;;;0.93;0.57;;;1.30;99.90;;;;;;5020443;28;20045;-50
2021/01/08 03:52:11;;;;;;;4.25;0.90;;;1.30;99.90;;;;;;5019419;28;20054;-50
2021/01/08 03:54:37;;;;;;;5.82;1.90;;;1.20;99.90;;;;;;5027010;28;20060;-50
2021/01/08 03:57:04;;;;;;;6.15;1.50;;;1.20;99.90;;;;;;5031561;28;20540;-50
2021/01/08 03:59:31;;;;;;;4.22;1.60;;;1.10;99.90;;;;;;5029435;28;20045;-50
2021/01/08 04:01:57;;;;;;;4.10;1.50;;;1.10;99.90;;;;;;5018787;28;20061;-50
2021/01/08 04:04:24;;;;;;;1.70;1.10;;;1.10;99.90;;;;;;5029019;28;20072;-50
2021/01/08 04:06:51;;;;;;;2.67;1.00;;;1.10;99.90;;;;;;5029997;28;20056;-51
2021/01/08 04:09:18;;;;;;;3.38;1.38;;;1.10;99.90;;;;;;5020401;28;20046;-51
2021/01/08 04:11:46;;;;;;;2.47;0.80;;;1.10;99.90;;;;;;5024525;28;20041;-50
2021/01/08 04:14:12;;;;;;;1.23;0.82;;;1.00;99.90;;;;;;5018836;28;20053;-52
2021/01/08 04:16:41;;;;;;;2.17;0.73;;;1.00;99.90;;;;;;5029754;28;20437;-50
2021/01/08 04:19:09;;;;;;;1.80;0.88;;;1.00;99.90;;;;;;5029089;28;20045;-50
2021/01/08 04:21:36;;;;;;;1.00;0.57;;;1.00;99.90;;;;;;5024270;28;20464;-50
2021/01/08 04:24:04;;;;;;;1.73;0.60;;;1.00;99.90;;;;;;5022128;28;20049;-51
2021/01/08 04:26:31;;;;;;;1.13;0.60;;;1.00;99.90;;;;;;5022410;28;20049;-50
2021/01/08 04:28:57;;;;;;;0.93;0.70;;;1.00;99.90;;;;;;5025540;28;20053;-50
2021/01/08 04:31:25;;;;;;;1.65;0.60;;;1.00;99.90;;;;;;5030127;28;20069;-50
2021/01/08 04:33:51;;;;;;;0.63;0.60;;;1.00;99.90;;;;;;5026247;28;20053;-51
2021/01/08 04:36:18;;;;;;;1.33;0.40;;;1.00;99.90;;;;;;5015041;28;20077;-50
2021/01/08 04:38:45;;;;;;;0.63;0.30;;;1.00;99.90;;;;;;5028182;28;20045;-50
2021/01/08 04:41:12;;;;;;;2.75;0.60;;;1.10;99.90;;;;;;5029047;28;20045;-50
2021/01/08 04:43:38;;;;;;;1.73;0.40;;;1.10;99.90;;;;;;5030764;28;20391;-50
2021/01/08 04:46:17;;;;;;;1.15;0.50;;;1.00;99.90;;;;;;5029182;28;20824;-50
2021/01/08 04:48:45;;;;;;;0.98;0.50;;;1.00;99.90;;;;;;5029306;28;20497;-51
2021/01/08 04:51:13;;;;;;;1.55;0.60;;;1.00;99.90;;;;;;5029572;28;20056;-50
2021/01/08 04:53:40;;;;;;;0.70;0.50;;;1.00;99.90;;;;;;5030672;28;20071;-52
2021/01/08 04:56:10;;;;;;;0.52;0.50;;;1.10;99.90;;;;;;5029818;28;20593;-50
2021/01/08 04:58:37;;;;;;;1.00;0.60;;;1.00;99.90;;;;;;5027163;28;20056;-50
2021/01/08 05:01:04;;;;;;;1.48;0.50;;;1.00;99.90;;;;;;5021374;28;20068;-50
2021/01/08 05:03:31;;;;;;;1.02;0.60;;;1.10;99.90;;;;;;5029092;28;20042;-50
2021/01/08 05:05:59;;;;;;;1.20;1.10;;;1.10;99.90;;;;;;5029535;28;20048;-50
2021/01/08 05:08:26;;;;;;;0.93;0.60;;;1.10;99.90;;;;;;5027022;28;20061;-51
2021/01/08 05:10:55;;;;;;;0.80;0.52;;;1.10;99.90;;;;;;5029410;28;20057;-50
2021/01/08 05:13:31;;;;;;;1.95;0.80;;;1.10;99.90;;;;;;5028213;28;20124;-50
2021/01/08 05:16:01;;;;;;;1.00;0.90;;;1.10;99.90;;;;;;5019274;28;20060;-50
2021/01/08 05:18:30;;;;;;;3.25;0.70;;;1.10;99.90;;;;;;5029203;28;20046;-50
2021/01/08 05:20:57;;;;;;;1.55;0.70;;;1.00;99.90;;;;;;5027979;28;20037;-50
2021/01/08 05:23:27;;;;;;;3.63;0.85;;;1.10;99.90;;;;;;5029363;28;20046;-50
2021/01/08 05:25:53;;;;;;;0.75;0.50;;;1.10;99.90;;;;;;5024660;28;20787;-50
2021/01/08 05:28:20;;;;;;;1.00;0.60;;;1.10;99.90;;;;;;5014964;28;20479;-50
2021/01/08 05:30:46;;;;;;;0.65;0.60;;;1.20;99.90;;;;;;5023816;28;20056;-50
2021/01/08 05:33:16;;;;;;;0.63;0.60;;;1.10;99.90;;;;;;5028089;28;20479;-51
2021/01/08 05:35:43;;;;;;;4.90;1.10;;;1.20;99.90;;;;;;5018679;28;20045;-51
2021/01/08 05:38:10;;;;;;;1.83;1.10;;;1.20;99.90;;;;;;5026577;28;20068;-50
2021/01/08 05:40:41;;;;;;;1.67;1.58;;;1.20;99.90;;;;;;5018953;28;20046;-50
2021/01/08 05:43:09;;;;;;;2.00;0.80;;;1.10;99.90;;;;;;5024446;28;20073;-50
2021/01/08 05:45:36;;;;;;;1.67;0.50;;;1.20;99.90;;;;;;5020656;28;20037;-51
2021/01/08 05:48:05;;;;;;;0.50;0.47;;;1.20;99.90;;;;;;5032959;28;20046;-51
2021/01/08 05:50:33;;;;;;;0.60;0.45;;;1.30;99.90;;;;;;5029096;28;20390;-50
2021/01/08 05:53:11;;;;;;;0.40;0.32;;;1.30;99.90;;;;;;5025612;28;20060;-50
2021/01/08 05:55:41;;;;;;;0.40;0.30;;;1.40;99.90;;;;;;5027317;28;20056;-50
2021/01/08 05:58:21;;;;;;;0.30;0.25;;;1.60;99.90;;;;;;5029768;28;20064;-51
2021/01/08 06:00:54;;;;;;;1.33;0.85;;;1.70;99.90;;;;;;5023614;28;20046;-51
2021/01/08 06:03:22;;;;;;;;;;;1.50;99.90;;;;;;5023929;28;20049;-50
2021/01/08 06:05:56;;;;;;;0.90;0.73;;;1.40;99.90;;;;;;5032912;28;20281;-50
2021/01/08 06:08:42;;;;;;;1.27;1.00;;;1.40;99.90;;;;;;5029353;28;20060;-50
2021/01/08 06:11:18;;;;;;;4.07;1.00;;;1.30;99.90;;;;;;5031968;28;20053;-52
2021/01/08 06:13:50;;;;;;;1.75;0.70;;;1.20;99.90;;;;;;5024533;28;20057;-51
2021/01/08 06:16:21;;;;;;;2.33;0.75;;;1.10;99.90;;;;;;5026177;28;20731;-51
2021/01/08 06:18:50;;;;;;;1.45;0.70;;;1.00;99.90;;;;;;5032425;28;20049;-50
2021/01/08 06:21:18;;;;;;;0.80;0.65;;;1.00;99.90;;;;;;5031775;28;20049;-50
2021/01/08 06:23:46;;;;;;;1.52;0.60;;;1.00;99.90;;;;;;5032857;28;20046;-54
2021/01/08 06:26:15;;;;;;;0.80;0.60;;;1.00;99.90;;;;;;5031765;28;20050;-50
2021/01/08 06:28:43;;;;;;;1.08;0.52;;;1.10;99.90;;;;;;5031595;28;20045;-50
2021/01/08 06:31:23;;;;;;;1.92;0.70;;;1.00;99.90;;;;;;5022056;28;20415;-49
2021/01/08 06:33:54;;;;;;;1.75;0.75;;;1.10;99.90;;;;;;5025797;28;20054;-50
2021/01/08 06:36:29;;;;;;;3.00;1.02;;;1.10;99.90;;;;;;5015943;28;20050;-50
2021/01/08 06:39:00;;;;;;;1.90;0.93;;;1.20;99.90;;;;;;5032339;28;20514;-51
2021/01/08 06:41:27;;;;;;;2.40;0.90;;;1.10;99.90;;;;;;5031360;28;20459;-49
2021/01/08 06:44:03;;;;;;;3.50;1.20;;;1.10;99.90;;;;;;5022968;28;20042;-49
2021/01/08 06:46:31;;;;;;;1.67;1.10;;;1.10;99.90;;;;;;5023777;28;20041;-49
2021/01/08 06:49:07;;;;;;;3.20;0.98;;;1.10;99.90;;;;;;5017074;28;20132;-49
2021/01/08 06:51:35;;;;;;;3.83;0.85;;;1.00;99.90;;;;;;5030346;28;20053;-50
2021/01/08 06:54:04;;;;;;;3.42;0.70;;;1.10;99.90;;;;;;5031241;28;20129;-49
2021/01/08 06:56:39;;;;;;;1.10;0.73;;;1.10;99.90;;;;;;5031350;28;20072;-49
2021/01/08 06:59:10;;;;;;;2.75;0.80;;;1.10;99.90;;;;;;5030246;28;20656;-49
2021/01/08 07:01:54;;;;;;;1.17;0.70;;;1.10;99.90;;;;;;5032515;28;20045;-50
2021/01/08 07:04:27;;;;;;;1.10;0.60;;;1.00;99.90;;;;;;5029084;28;20564;-49
2021/01/08 07:06:54;;;;;;;0.93;0.75;;;1.00;99.90;;;;;;5021339;28;20049;-49
2021/01/08 07:09:29;;;;;;;2.42;1.50;;;1.00;99.90;;;;;;5030517;28;20045;-49
2021/01/08 07:11:58;;;;;;;3.67;1.20;;;1.00;99.90;;;;;;5029042;28;20057;-49
2021/01/08 07:14:25;;;;;;;3.58;1.00;;;1.00;99.90;;;;;;5031137;28;20617;-49
2021/01/08 07:16:53;;;;;;;1.65;1.00;;;1.00;99.90;;;;;;5030346;28;20037;-49
2021/01/08 07:19:23;;;;;;;0.90;0.80;;;1.00;99.90;;;;;;5015173;28;20125;-49
2021/01/08 07:21:55;;;;;;;1.38;1.20;;;1.00;99.90;;;;;;5026757;28;20056;-49
2021/01/08 07:24:35;;;;;;;1.58;0.60;;;1.10;99.90;;;;;;5017154;28;20048;-51
2021/01/08 07:27:22;;;;;;;1.33;0.88;;;1.10;99.90;;;;;;5031940;28;20055;-49
2021/01/08 07:29:48;;;;;;;1.83;0.50;;;1.20;99.90;;;;;;5031053;28;20038;-49
2021/01/08 07:32:30;;;;;;;0.63;0.50;;;1.20;99.90;;;;;;5030785;28;20510;-49
2021/01/08 07:34:57;;;;;;;1.10;0.60;;;1.40;99.90;;;;;;5026789;28;20042;-49
2021/01/08 07:37:55;;;;;;;0.52;0.50;;;1.50;99.90;;;;;;5018780;28;20041;-50
2021/01/08 07:40:22;;;;;;;13.82;6.95;;;1.60;99.90;;;;;;5024858;28;20068;-49
2021/01/08 07:43:15;;;;;;;10.68;8.55;;;1.60;99.90;;;;;;5031400;28;20049;-49
2021/01/08 07:45:55;;;;;;;8.13;5.50;;;1.60;99.90;;;;;;5021437;28;20048;-49
2021/01/08 07:48:27;;;;;;;7.57;4.28;;;1.50;99.90;;;;;;5031480;28;20081;-50
2021/01/08 07:51:05;;;;;;;8.48;4.65;;;1.50;99.90;;;;;;5028352;28;20482;-49
2021/01/08 07:53:50;;;;;;;8.77;3.70;;;1.50;99.90;;;;;;5031242;28;20060;-49
2021/01/08 07:56:25;;;;;;;6.82;4.32;;;1.50;99.90;;;;;;5029896;28;20399;-50
2021/01/08 07:59:04;;;;;;;3.47;1.73;;;1.50;99.90;;;;;;5021457;28;20050;-49
2021/01/08 08:01:32;;;;;;;5.05;2.20;;;1.40;99.90;;;;;;5030338;28;20056;-49
2021/01/08 08:04:09;;;;;;;7.35;2.95;;;1.50;99.90;;;;;;5029250;28;20077;-50
2021/01/08 08:06:39;;;;;;;1.90;1.20;;;1.40;99.90;;;;;;5029862;28;20068;-51
2021/01/08 08:09:11;;;;;;;2.53;1.52;;;1.40;99.90;;;;;;5030655;28;20069;-50
2021/01/08 08:11:37;;;;;;;2.92;1.60;;;1.40;99.90;;;;;;5020018;28;20485;-49
2021/01/08 08:14:05;;;;;;;2.35;1.42;;;1.40;99.90;;;;;;5021689;28;20092;-49
2021/01/08 08:16:34;;;;;;;3.65;1.25;;;1.40;99.90;;;;;;5020613;28;20103;-51
2021/01/08 08:19:01;;;;;;;2.30;1.23;;;1.40;99.90;;;;;;5031442;28;20084;-49
2021/01/08 08:21:27;;;;;;;1.05;0.70;;;1.40;99.90;;;;;;5026370;28;20072;-52
2021/01/08 08:24:02;;;;;;;4.90;0.93;;;1.50;99.90;;;;;;5031052;28;20056;-49
2021/01/08 08:26:31;;;;;;;2.65;1.67;;;1.60;99.90;;;;;;5030452;28;20052;-49
2021/01/08 08:29:09;;;;;;;1.00;0.80;;;1.60;99.90;;;;;;5029838;28;20418;-49
2021/01/08 08:31:46;;;;;;;3.17;1.10;;;1.60;99.90;;;;;;5030328;28;20414;-49
2021/01/08 08:34:15;;;;;;;3.13;1.52;;;1.70;99.90;;;;;;5031318;28;20046;-50
2021/01/08 08:36:42;;;;;;;5.07;3.25;;;1.70;99.90;;;;;;5030244;28;20049;-49
2021/01/08 08:39:11;;;;;;;6.65;2.78;;;1.80;99.90;;;;;;5028403;28;20038;-50
2021/01/08 08:41:39;;;;;;;2.70;1.40;;;1.80;99.90;;;;;;5029653;28;20048;-49
2021/01/08 08:44:09;;;;;;;10.27;3.55;;;1.90;99.90;;;;;;5021999;28;20053;-52
2021/01/08 08:46:41;;;;;;;2.42;1.65;;;2.10;99.90;;;;;;5024216;28;20045;-51
2021/01/08 08:49:11;;;;;;;14.63;5.38;;;2.20;99.90;;;;;;5029898;28;20493;-51
2021/01/08 08:51:48;;;;;;;5.07;1.85;;;2.20;99.90;;;;;;5028016;28;20517;-49
2021/01/08 08:54:16;;;;;;;2.58;1.27;;;2.30;99.90;;;;;;5014189;28;20435;-49
2021/01/08 08:56:53;;;;;;;4.40;1.13;;;2.40;99.90;;;;;;5028931;28;20383;-50
2021/01/08 08:59:45;;;;;;;8.85;1.63;;;2.40;99.90;;;;;;5028194;28;20054;-50
2021/01/08 09:02:26;;;;;;;3.63;1.15;;;2.50;99.90;;;;;;5029518;28;20055;-49
2021/01/08 09:04:58;;;;;;;2.95;1.17;;;2.50;99.90;;;;;;5024997;28;20057;-49
2021/01/08 09:07:45;;;;;;;3.00;2.10;;;2.70;99.90;;;;;;5025431;28;20053;-49
2021/01/08 09:10:22;;;;;;;5.18;3.92;;;2.70;99.90;;;;;;5030146;28;20385;-49
2021/01/08 09:13:06;;;;;;;2.40;1.23;;;2.80;99.90;;;;;;5028097;28;20057;-49
2021/01/08 09:15:34;;;;;;;3.22;1.90;;;2.80;99.90;;;;;;5026774;28;20050;-50
2021/01/08 09:18:10;;;;;;;2.60;1.90;;;3.00;99.90;;;;;;5026338;28;20041;-49
2021/01/08 09:21:18;;;;;;;9.10;5.00;;;3.10;99.90;;;;;;5023381;28;20072;-50
2021/01/08 09:23:47;;;;;;;3.47;1.85;;;3.10;99.90;;;;;;5034113;28;20060;-50
2021/01/08 09:26:18;;;;;;;10.45;2.50;;;3.10;99.90;;;;;;5031619;28;20485;-49
2021/01/08 09:28:52;;;;;;;13.90;7.10;;;3.10;99.90;;;;;;5030604;28;20054;-50
2021/01/08 09:31:20;;;;;;;21.20;10.05;;;3.10;99.90;;;;;;5031676;28;20376;-49
2021/01/08 09:34:00;;;;;;;4.15;2.47;;;3.10;99.90;;;;;;5023021;28;20132;-50
2021/01/08 09:36:34;;;;;;;2.10;1.67;;;3.20;99.90;;;;;;5018571;28;20056;-50
2021/01/08 09:39:07;;;;;;;2.42;1.35;;;3.20;99.90;;;;;;5029722;28;20037;-49
2021/01/08 09:41:38;;;;;;;2.47;1.13;;;3.50;99.90;;;;;;5031491;28;20132;-49
2021/01/08 09:44:07;;;;;;;5.22;3.30;;;3.50;99.90;;;;;;5033132;28;20112;-49
2021/01/08 09:46:53;;;;;;;3.40;2.28;;;3.60;99.90;;;;;;5027440;28;20052;-50
2021/01/08 09:49:20;;;;;;;1.50;1.25;;;3.60;99.90;;;;;;5018637;28;20490;-49
2021/01/08 09:51:46;;;;;;;1.27;1.05;;;3.70;99.90;;;;;;5029243;28;20049;-51
2021/01/08 09:54:13;;;;;;;3.85;1.30;;;3.80;99.90;;;;;;5028771;28;20141;-49
2021/01/08 09:56:52;;;;;;;1.00;0.90;;;4.10;99.90;;;;;;5032188;28;20049;-50
2021/01/08 09:59:18;;;;;;;1.50;0.80;;;4.30;99.90;;;;;;5030796;28;20095;-49
2021/01/08 10:01:59;;;;;;;1.63;1.42;;;4.60;99.90;;;;;;5033316;28;20049;-51
2021/01/08 10:04:33;;;;;;;1.30;0.82;;;4.70;99.90;;;;;;5032743;28;20457;-50
2021/01/08 10:07:07;;;;;;;2.65;0.95;;;4.70;99.90;;;;;;5025031;28;20108;-50
2021/01/08 10:09:52;;;;;;;4.88;0.90;;;4.60;99.90;;;;;;5029449;28;20052;-50
2021/01/08 10:12:22;;;;;;;1.05;0.88;;;4.60;99.90;;;;;;5030825;28;20049;-49
2021/01/08 10:14:48;;;;;;;1.17;0.80;;;4.50;99.90;;;;;;5031000;28;20049;-49
2021/01/08 10:17:18;;;;;;;1.55;0.80;;;4.50;99.90;;;;;;5031124;28;20045;-49
2021/01/08 10:19:47;;;;;;;1.33;0.90;;;4.40;99.90;;;;;;5031535;28;20046;-50
2021/01/08 10:22:18;;;;;;;2.03;0.93;;;4.40;99.90;;;;;;5029497;28;20048;-49
2021/01/08 10:24:45;;;;;;;1.27;1.15;;;4.40;99.90;;;;;;5031100;28;20049;-51
2021/01/08 10:27:12;;;;;;;2.33;1.60;;;4.40;99.90;;;;;;5022829;28;20049;-49
2021/01/08 10:29:40;;;;;;;3.53;1.45;;;4.40;99.90;;;;;;5020230;28;20048;-49
2021/01/08 10:32:11;;;;;;;6.88;1.73;;;4.40;99.90;;;;;;5021423;28;20053;-51
2021/01/08 10:34:41;;;;;;;2.42;1.40;;;4.50;99.90;;;;;;5031379;28;20056;-49
2021/01/08 10:37:19;;;;;;;3.25;1.67;;;4.50;99.90;;;;;;5031363;28;20045;-49
2021/01/08 10:39:46;;;;;;;2.92;1.15;;;4.60;99.90;;;;;;5029475;28;20491;-50
2021/01/08 10:42:15;;;;;;;3.08;1.45;;;4.60;99.90;;;;;;5029551;28;20467;-49
2021/01/08 10:44:43;;;;;;;1.42;0.95;;;4.50;99.90;;;;;;5031325;28;20049;-51
2021/01/08 10:47:10;;;;;;;4.05;1.65;;;4.60;99.90;;;;;;5028328;28;20100;-50
2021/01/08 10:49:54;;;;;;;2.55;1.15;;;4.70;99.90;;;;;;5028023;28;20046;-49
2021/01/08 10:52:21;;;;;;;1.77;1.10;;;4.70;99.90;;;;;;5027716;28;20053;-50
2021/01/08 10:54:47;;;;;;;2.25;1.52;;;4.80;99.90;;;;;;5028778;28;20044;-50
2021/01/08 10:57:14;;;;;;;1.20;1.10;;;4.80;99.90;;;;;;5024821;28;20380;-49
2021/01/08 10:59:41;;;;;;;1.90;1.30;;;4.80;99.90;;;;;;5026791;28;20049;-50
2021/01/08 11:02:07;;;;;;;3.22;1.25;;;4.80;99.90;;;;;;5038271;28;20049;-50
2021/01/08 11:04:41;;;;;;;1.75;1.42;;;4.80;99.90;;;;;;5031856;28;20081;-50
2021/01/08 11:07:09;;;;;;;1.42;1.33;;;4.80;99.90;;;;;;5031907;28;20489;-50
2021/01/08 11:09:36;;;;;;;2.88;1.50;;;4.80;99.90;;;;;;5031189;28;20045;-50
2021/01/08 11:12:09;;;;;;;3.00;1.65;;;4.80;99.90;;;;;;4998250;28;651147;-50
2021/01/08 11:14:36;;;;;;;2.03;1.70;;;4.80;99.90;;;;;;5028675;28;20046;-50
2021/01/08 11:17:02;;;;;;;4.00;1.63;;;4.80;99.90;;;;;;5030747;28;20053;-50
2021/01/08 11:19:29;;;;;;;1.52;1.25;;;4.80;99.90;;;;;;5039222;28;20115;-49
2021/01/08 11:21:55;;;;;;;1.73;1.60;;;4.80;99.90;;;;;;5030179;28;20497;-50
2021/01/08 11:24:22;;;;;;;6.38;2.20;;;4.90;99.90;;;;;;5029406;28;20049;-53
2021/01/08 11:26:49;;;;;;;2.20;2.00;;;4.90;99.90;;;;;;5029554;28;20041;-50
2021/01/08 11:29:16;;;;;;;3.28;1.73;;;4.80;99.90;;;;;;5024080;28;20078;-49
2021/01/08 11:31:42;;;;;;;1.85;1.65;;;4.80;99.90;;;;;;5030528;28;20043;-49
2021/01/08 11:34:10;;;;;;;2.28;1.50;;;4.90;99.90;;;;;;5033087;28;20054;-50
2021/01/08 11:36:38;;;;;;;2.20;1.58;;;4.90;99.90;;;;;;5029897;28;20057;-51
2021/01/08 11:39:08;;;;;;;3.15;2.15;;;4.90;99.90;;;;;;5031538;28;20523;-49
2021/01/08 11:41:35;;;;;;;3.33;2.58;;;5.00;99.90;;;;;;5038934;28;20382;-49
2021/01/08 11:44:01;;;;;;;2.70;1.88;;;5.20;99.90;;;;;;5025881;28;20060;-50
2021/01/08 11:46:28;;;;;;;1.40;1.25;;;5.50;99.90;;;;;;5027851;28;20057;-51
2021/01/08 11:48:54;;;;;;;2.35;2.15;;;5.80;99.90;;;;;;5025040;28;20050;-51
2021/01/08 11:51:23;;;;;;;4.03;1.30;;;6.00;99.90;;;;;;5046368;28;20049;-50
2021/01/08 11:53:53;;;;;;;2.55;1.50;;;6.00;99.90;;;;;;5026561;28;20459;-50
2021/01/08 11:56:28;;;;;;;5.80;3.03;;;5.90;99.90;;;;;;5019059;28;20271;-52
2021/01/08 11:58:55;;;;;;;2.33;1.40;;;6.20;99.90;;;;;;5031143;28;20063;-50
2021/01/08 12:01:28;;;;;;;3.05;1.73;;;6.30;99.90;;;;;;5027902;28;20042;-51
2021/01/08 12:03:55;;;;;;;2.05;1.70;;;6.10;99.90;;;;;;5031258;28;20483;-50
2021/01/08 12:06:32;;;;;;;2.88;1.67;;;6.00;99.90;;;;;;5026628;28;20037;-51
2021/01/08 12:09:00;;;;;;;2.00;1.73;;;5.90;99.90;;;;;;5014559;28;20053;-53
2021/01/08 12:11:27;;;;;;;3.85;1.73;;;5.90;99.90;;;;;;5026120;28;20052;-52
2021/01/08 12:13:55;;;;;;;5.40;1.20;;;6.10;99.90;;;;;;5019383;28;20368;-52
2021/01/08 12:16:27;;;;;;;2.70;1.58;;;6.10;99.90;;;;;;5031171;28;20053;-50
2021/01/08 12:18:54;;;;;;;3.28;1.83;;;6.40;99.90;;;;;;5029268;28;20091;-50
2021/01/08 12:21:24;;;;;;;1.83;1.30;;;6.50;99.90;;;;;;5029531;28;20049;-51
2021/01/08 12:23:51;;;;;;;1.40;1.30;;;6.50;99.90;;;;;;5027425;28;20430;-52
2021/01/08 12:26:19;;;;;;;3.92;1.50;;;6.60;99.90;;;;;;5015315;28;20049;-54
2021/01/08 12:28:50;;;;;;;2.75;2.00;;;6.70;99.90;;;;;;5031894;28;20542;-53
2021/01/08 12:31:26;;;;;;;2.38;1.30;;;6.50;99.90;;;;;;5029697;28;20419;-53
2021/01/08 12:33:53;;;;;;;2.53;1.80;;;6.30;99.90;;;;;;5030243;28;20049;-51
2021/01/08 12:36:20;;;;;;;2.05;1.33;;;6.30;99.90;;;;;;5029600;28;20406;-52
2021/01/08 12:38:48;;;;;;;2.10;1.73;;;6.40;99.90;;;;;;5030655;28;20467;-53
2021/01/08 12:41:16;;;;;;;2.95;1.70;;;6.40;99.90;;;;;;5029126;28;20490;-52
2021/01/08 12:43:43;;;;;;;1.77;1.25;;;6.40;99.90;;;;;;5027295;28;20056;-53
2021/01/08 12:46:10;;;;;;;1.80;1.50;;;6.40;99.90;;;;;;5026942;28;20162;-52
2021/01/08 12:48:36;;;;;;;3.05;1.60;;;6.30;99.90;;;;;;5027767;28;20049;-49
2021/01/08 12:51:04;;;;;;;3.88;1.33;;;5.80;99.90;;;;;;5030167;28;20057;-50
2021/01/08 12:53:30;;;;;;;1.70;1.10;;;5.80;99.90;;;;;;5028432;28;20057;-49
2021/01/08 12:55:57;;;;;;;3.47;1.55;;;5.60;99.90;;;;;;5013038;28;20060;-52
2021/01/08 12:58:23;;;;;;;2.17;1.30;;;5.70;99.90;;;;;;5030129;28;20049;-50
2021/01/08 13:00:50;;;;;;;1.75;1.50;;;5.80;99.90;;;;;;5026501;28;20049;-52
2021/01/08 13:03:17;;;;;;;6.82;1.85;;;5.80;99.90;;;;;;5029802;28;20491;-51
2021/01/08 13:06:01;;;;;;;5.75;1.73;;;5.80;99.90;;;;;;5028096;28;20049;-50
2021/01/08 13:08:28;;;;;;;3.00;1.90;;;6.00;99.90;;;;;;5015884;28;20136;-50
2021/01/08 13:10:54;;;;;;;2.92;2.28;;;6.20;99.90;;;;;;5027527;28;20501;-50